sensor_id;sensor_type;location;lat;lon;timestamp;pressure;altitude;pressure_sealevel;temperature;humidity
50394;BME280;36308;46.312;25.288;2023-05-12T00:02:18;96526.44;;;10.00;49.78
50394;BME280;36308;46.312;25.288;2023-05-12T00:04:43;96518.38;;;10.00;49.77
50394;BME280;36308;46.312;25.288;2023-05-12T00:07:09;96521.63;;;10.02;49.88
50394;BME280;36308;46.312;25.288;2023-05-12T00:09:34;96515.41;;;10.02;49.89
50394;BME280;36308;46.312;25.288;2023-05-12T00:12:00;96518.94;;;10.02;50.13
50394;BME280;36308;46.312;25.288;2023-05-12T00:14:26;96516.81;;;10.04;49.94
50394;BME280;36308;46.312;25.288;2023-05-12T00:16:52;96510.38;;;10.05;49.87
50394;BME280;36308;46.312;25.288;2023-05-12T00:19:18;96512.50;;;10.03;50.16
50394;BME280;36308;46.312;25.288;2023-05-12T00:21:44;96516.81;;;10.04;49.86
50394;BME280;36308;46.312;25.288;2023-05-12T00:24:10;96512.50;;;10.03;49.76
50394;BME280;36308;46.312;25.288;2023-05-12T00:26:35;96521.94;;;10.06;49.88
50394;BME280;36308;46.312;25.288;2023-05-12T00:29:01;96521.94;;;10.06;49.50
50394;BME280;36308;46.312;25.288;2023-05-12T00:31:45;96519.50;;;10.04;50.22
50394;BME280;36308;46.312;25.288;2023-05-12T00:34:10;96513.63;;;10.07;49.94
50394;BME280;36308;46.312;25.288;2023-05-12T00:36:36;96512.00;;;10.06;50.37
50394;BME280;36308;46.312;25.288;2023-05-12T00:39:01;96512.50;;;10.03;49.63
50394;BME280;36308;46.312;25.288;2023-05-12T00:41:27;96516.56;;;10.06;49.88
50394;BME280;36308;46.312;25.288;2023-05-12T00:43:53;96513.06;;;10.05;50.06
50394;BME280;36308;46.312;25.288;2023-05-12T00:46:19;96507.47;;;10.07;49.45
50394;BME280;36308;46.312;25.288;2023-05-12T00:48:46;96517.38;;;10.06;50.24
50394;BME280;36308;46.312;25.288;2023-05-12T00:51:12;96505.00;;;10.05;50.00
50394;BME280;36308;46.312;25.288;2023-05-12T00:53:40;96509.00;;;10.03;50.66
50394;BME280;36308;46.312;25.288;2023-05-12T00:56:06;96507.13;;;10.03;50.16
50394;BME280;36308;46.312;25.288;2023-05-12T00:58:32;96510.88;;;10.02;49.79
50394;BME280;36308;46.312;25.288;2023-05-12T01:00:57;96506.31;;;10.03;49.85
50394;BME280;36308;46.312;25.288;2023-05-12T01:03:23;96506.56;;;10.01;49.77
50394;BME280;36308;46.312;25.288;2023-05-12T01:08:30;96505.50;;;10.02;49.94
50394;BME280;36308;46.312;25.288;2023-05-12T01:10:55;96510.03;;;10.02;49.99
50394;BME280;36308;46.312;25.288;2023-05-12T01:13:21;96506.31;;;10.03;49.45
50394;BME280;36308;46.312;25.288;2023-05-12T01:15:47;96504.66;;;10.02;49.83
50394;BME280;36308;46.312;25.288;2023-05-12T01:18:14;96493.03;;;9.96;49.93
50394;BME280;36308;46.312;25.288;2023-05-12T01:20:42;96500.13;;;10.02;49.80
50394;BME280;36308;46.312;25.288;2023-05-12T01:23:09;96500.13;;;10.02;49.68
50394;BME280;36308;46.312;25.288;2023-05-12T01:25:36;96506.31;;;10.03;49.96
50394;BME280;36308;46.312;25.288;2023-05-12T01:28:04;96500.13;;;10.02;49.55
50394;BME280;36308;46.312;25.288;2023-05-12T01:30:30;96499.56;;;10.00;49.47
50394;BME280;36308;46.312;25.288;2023-05-12T01:32:56;96502.25;;;10.00;49.47
50394;BME280;36308;46.312;25.288;2023-05-12T01:35:22;96503.63;;;10.03;49.87
50394;BME280;36308;46.312;25.288;2023-05-12T01:37:48;96495.22;;;9.99;49.88
50394;BME280;36308;46.312;25.288;2023-05-12T01:40:13;96497.34;;;9.97;49.97
50394;BME280;36308;46.312;25.288;2023-05-12T01:42:57;96503.22;;;9.94;49.57
50394;BME280;36308;46.312;25.288;2023-05-12T01:45:23;96501.56;;;9.93;49.73
50394;BME280;36308;46.312;25.288;2023-05-12T01:47:48;96505.34;;;9.92;49.48
50394;BME280;36308;46.312;25.288;2023-05-12T01:50:14;96499.97;;;9.92;50.20
50394;BME280;36308;46.312;25.288;2023-05-12T01:52:39;96506.59;;;9.89;50.18
50394;BME280;36308;46.312;25.288;2023-05-12T01:55:05;96504.19;;;9.88;49.32
50394;BME280;36308;46.312;25.288;2023-05-12T01:57:31;96507.09;;;9.86;50.20
50394;BME280;36308;46.312;25.288;2023-05-12T01:59:57;96504.66;;;9.85;49.39
50394;BME280;36308;46.312;25.288;2023-05-12T02:02:22;96505.72;;;9.84;49.48
50394;BME280;36308;46.312;25.288;2023-05-12T02:04:48;96505.16;;;9.82;49.38
50394;BME280;36308;46.312;25.288;2023-05-12T02:07:13;96501.88;;;9.80;49.22
50394;BME280;36308;46.312;25.288;2023-05-12T02:09:39;96498.06;;;9.76;49.43
50394;BME280;36308;46.312;25.288;2023-05-12T02:12:05;96495.03;;;9.72;48.78
50394;BME280;36308;46.312;25.288;2023-05-12T02:14:32;96500.63;;;9.70;49.36
50394;BME280;36308;46.312;25.288;2023-05-12T02:16:58;96497.38;;;9.68;49.63
50394;BME280;36308;46.312;25.288;2023-05-12T02:19:23;96493.53;;;9.64;49.42
50394;BME280;36308;46.312;25.288;2023-05-12T02:21:49;96491.09;;;9.63;49.40
50394;BME280;36308;46.312;25.288;2023-05-12T02:24:14;96494.84;;;9.62;49.80
50394;BME280;36308;46.312;25.288;2023-05-12T02:26:42;96490.75;;;9.59;49.72
50394;BME280;36308;46.312;25.288;2023-05-12T02:29:08;96495.56;;;9.57;49.85
50394;BME280;36308;46.312;25.288;2023-05-12T02:31:35;96487.97;;;9.54;49.71
50394;BME280;36308;46.312;25.288;2023-05-12T02:34:01;96495.44;;;9.52;49.91
50394;BME280;36308;46.312;25.288;2023-05-12T02:36:28;96489.50;;;9.50;50.27
50394;BME280;36308;46.312;25.288;2023-05-12T02:38:53;96493.25;;;9.49;50.01
50394;BME280;36308;46.312;25.288;2023-05-12T02:41:18;96488.63;;;9.44;50.06
50394;BME280;36308;46.312;25.288;2023-05-12T02:43:44;96488.03;;;9.42;50.27
50394;BME280;36308;46.312;25.288;2023-05-12T02:46:10;96494.66;;;9.40;50.20
50394;BME280;36308;46.312;25.288;2023-05-12T02:48:35;96491.41;;;9.38;50.63
50394;BME280;36308;46.312;25.288;2023-05-12T02:51:01;96492.94;;;9.34;50.76
50394;BME280;36308;46.312;25.288;2023-05-12T02:53:26;96494.47;;;9.29;50.27
50394;BME280;36308;46.312;25.288;2023-05-12T02:55:52;96493.56;;;9.24;50.84
50394;BME280;36308;46.312;25.288;2023-05-12T02:58:18;96496.13;;;9.19;50.39
50394;BME280;36308;46.312;25.288;2023-05-12T03:00:43;96494.16;;;9.14;50.63
50394;BME280;36308;46.312;25.288;2023-05-12T03:03:09;96494.31;;;9.07;50.81
50394;BME280;36308;46.312;25.288;2023-05-12T03:05:35;96493.16;;;9.03;51.27
50394;BME280;36308;46.312;25.288;2023-05-12T03:08:00;96492.56;;;9.01;51.47
50394;BME280;36308;46.312;25.288;2023-05-12T03:10:26;96504.00;;;8.97;51.28
50394;BME280;36308;46.312;25.288;2023-05-12T03:12:51;96498.53;;;8.92;51.55
50394;BME280;36308;46.312;25.288;2023-05-12T03:15:17;96498.53;;;8.92;51.95
50394;BME280;36308;46.312;25.288;2023-05-12T03:17:42;96500.03;;;8.87;52.06
50394;BME280;36308;46.312;25.288;2023-05-12T03:20:08;96500.53;;;8.84;52.33
50394;BME280;36308;46.312;25.288;2023-05-12T03:22:34;96496.69;;;8.80;52.20
50394;BME280;36308;46.312;25.288;2023-05-12T03:25:00;96494.47;;;8.77;52.61
50394;BME280;36308;46.312;25.288;2023-05-12T03:27:25;96496.56;;;8.75;52.33
50394;BME280;36308;46.312;25.288;2023-05-12T03:29:51;96494.94;;;8.74;52.45
50394;BME280;36308;46.312;25.288;2023-05-12T03:32:16;96498.66;;;8.73;52.77
50394;BME280;36308;46.312;25.288;2023-05-12T03:34:42;96497.03;;;8.72;52.60
50394;BME280;36308;46.312;25.288;2023-05-12T03:37:07;96498.66;;;8.73;52.32
50394;BME280;36308;46.312;25.288;2023-05-12T03:39:33;96504.03;;;8.73;52.26
50394;BME280;36308;46.312;25.288;2023-05-12T03:41:58;96498.66;;;8.73;52.69
50394;BME280;36308;46.312;25.288;2023-05-12T03:44:24;96506.47;;;8.75;52.78
50394;BME280;36308;46.312;25.288;2023-05-12T03:46:49;96501.09;;;8.75;52.71
50394;BME280;36308;46.312;25.288;2023-05-12T03:49:15;96508.94;;;8.76;52.50
50394;BME280;36308;46.312;25.288;2023-05-12T03:51:41;96515.91;;;8.77;52.63
50394;BME280;36308;46.312;25.288;2023-05-12T03:54:06;96509.50;;;8.78;53.09
50394;BME280;36308;46.312;25.288;2023-05-12T03:56:32;96508.22;;;8.81;52.93
50394;BME280;36308;46.312;25.288;2023-05-12T03:58:57;96513.94;;;8.84;52.63
50394;BME280;36308;46.312;25.288;2023-05-12T04:01:23;96512.88;;;8.85;52.78
50394;BME280;36308;46.312;25.288;2023-05-12T04:03:48;96518.59;;;8.89;52.54
50394;BME280;36308;46.312;25.288;2023-05-12T04:06:14;96517.28;;;8.92;53.15
50394;BME280;36308;46.312;25.288;2023-05-12T04:08:39;96505.75;;;8.91;52.69
50394;BME280;36308;46.312;25.288;2023-05-12T04:11:05;96522.31;;;9.00;52.94
50394;BME280;36308;46.312;25.288;2023-05-12T04:13:31;96513.81;;;9.03;52.72
50394;BME280;36308;46.312;25.288;2023-05-12T04:15:57;96527.53;;;9.06;52.91
50394;BME280;36308;46.312;25.288;2023-05-12T04:18:26;96527.44;;;9.13;53.13
50394;BME280;36308;46.312;25.288;2023-05-12T04:20:52;96515.19;;;9.17;52.57
50394;BME280;36308;46.312;25.288;2023-05-12T04:23:18;96521.66;;;9.21;52.89
50394;BME280;36308;46.312;25.288;2023-05-12T04:25:44;96516.41;;;9.26;51.71
50394;BME280;36308;46.312;25.288;2023-05-12T04:28:09;96522.72;;;9.32;51.34
50394;BME280;36308;46.312;25.288;2023-05-12T04:30:35;96522.56;;;9.39;51.43
50394;BME280;36308;46.312;25.288;2023-05-12T04:33:03;96527.00;;;9.45;50.85
50394;BME280;36308;46.312;25.288;2023-05-12T04:35:28;96524.97;;;9.52;50.38
50394;BME280;36308;46.312;25.288;2023-05-12T04:37:54;96519.22;;;9.60;50.54
50394;BME280;36308;46.312;25.288;2023-05-12T04:40:19;96522.59;;;9.67;49.62
50394;BME280;36308;46.312;25.288;2023-05-12T04:42:45;96531.31;;;9.75;49.69
50394;BME280;36308;46.312;25.288;2023-05-12T04:45:10;96529.06;;;9.83;49.07
50394;BME280;36308;46.312;25.288;2023-05-12T04:47:36;96525.16;;;9.91;48.88
50394;BME280;36308;46.312;25.288;2023-05-12T04:50:02;96525.84;;;9.98;48.33
50394;BME280;36308;46.312;25.288;2023-05-12T04:52:28;96521.94;;;10.06;48.06
50394;BME280;36308;46.312;25.288;2023-05-12T04:54:54;96516.41;;;10.12;47.62
50394;BME280;36308;46.312;25.288;2023-05-12T04:57:19;96520.91;;;10.24;47.14
50394;BME280;36308;46.312;25.288;2023-05-12T04:59:45;96521.59;;;10.31;46.69
50394;BME280;36308;46.312;25.288;2023-05-12T05:02:10;96526.56;;;10.39;45.84
50394;BME280;36308;46.312;25.288;2023-05-12T05:04:36;96519.63;;;10.43;45.53
50394;BME280;36308;46.312;25.288;2023-05-12T05:07:02;96519.22;;;10.51;45.25
50394;BME280;36308;46.312;25.288;2023-05-12T05:09:28;96522.81;;;10.57;45.14
50394;BME280;36308;46.312;25.288;2023-05-12T05:11:54;96527.78;;;10.65;44.66
50394;BME280;36308;46.312;25.288;2023-05-12T05:14:20;96530.88;;;10.74;43.76
50394;BME280;36308;46.312;25.288;2023-05-12T05:16:46;96514.16;;;10.72;42.50
50394;BME280;36308;46.312;25.288;2023-05-12T05:19:13;96535.91;;;10.87;41.92
50394;BME280;36308;46.312;25.288;2023-05-12T05:21:38;96535.47;;;10.96;42.22
50394;BME280;36308;46.312;25.288;2023-05-12T05:24:04;96526.41;;;11.02;43.14
50394;BME280;36308;46.312;25.288;2023-05-12T05:26:30;96536.03;;;11.15;43.11
50394;BME280;36308;46.312;25.288;2023-05-12T05:28:55;96542.91;;;11.27;41.42
50394;BME280;36308;46.312;25.288;2023-05-12T05:31:21;96538.97;;;11.35;40.10
50394;BME280;36308;46.312;25.288;2023-05-12T05:33:47;96537.72;;;11.43;39.93
50394;BME280;36308;46.312;25.288;2023-05-12T05:36:13;96549.69;;;11.52;40.39
50394;BME280;36308;46.312;25.288;2023-05-12T05:38:38;96544.66;;;11.61;40.02
50394;BME280;36308;46.312;25.288;2023-05-12T05:41:04;96543.72;;;11.72;39.20
50394;BME280;36308;46.312;25.288;2023-05-12T05:43:30;96550.00;;;11.83;37.77
50394;BME280;36308;46.312;25.288;2023-05-12T05:45:56;96549.34;;;11.92;38.11
50394;BME280;36308;46.312;25.288;2023-05-12T05:48:25;96552.41;;;12.01;37.59
50394;BME280;36308;46.312;25.288;2023-05-12T05:50:51;96547.44;;;12.15;37.41
50394;BME280;36308;46.312;25.288;2023-05-12T05:53:18;96542.38;;;12.24;36.44
50394;BME280;36308;46.312;25.288;2023-05-12T05:55:44;96541.13;;;12.31;36.60
50394;BME280;36308;46.312;25.288;2023-05-12T05:58:09;96551.69;;;12.38;36.19
50394;BME280;36308;46.312;25.288;2023-05-12T06:00:35;96554.44;;;12.43;36.13
50394;BME280;36308;46.312;25.288;2023-05-12T06:03:00;96556.09;;;12.49;36.32
50394;BME280;36308;46.312;25.288;2023-05-12T06:05:26;96554.53;;;12.53;35.83
50394;BME280;36308;46.312;25.288;2023-05-12T06:07:52;96555.63;;;12.58;35.45
50394;BME280;36308;46.312;25.288;2023-05-12T06:10:17;96562.16;;;12.62;35.83
50394;BME280;36308;46.312;25.288;2023-05-12T06:12:43;96559.47;;;12.67;35.22
50394;BME280;36308;46.312;25.288;2023-05-12T06:15:09;96562.75;;;12.74;35.26
50394;BME280;36308;46.312;25.288;2023-05-12T06:17:35;96568.75;;;12.81;34.65
50394;BME280;36308;46.312;25.288;2023-05-12T06:20:01;96567.19;;;12.85;34.31
50394;BME280;36308;46.312;25.288;2023-05-12T06:22:26;96560.19;;;12.89;34.09
50394;BME280;36308;46.312;25.288;2023-05-12T06:24:52;96564.56;;;12.96;33.85
50394;BME280;36308;46.312;25.288;2023-05-12T06:27:17;96562.97;;;13.00;34.32
50394;BME280;36308;46.312;25.288;2023-05-12T06:29:43;96570.56;;;13.08;33.87
50394;BME280;36308;46.312;25.288;2023-05-12T06:32:09;96568.69;;;13.13;34.46
50394;BME280;36308;46.312;25.288;2023-05-12T06:34:34;96571.75;;;13.22;34.13
50394;BME280;36308;46.312;25.288;2023-05-12T06:37:00;96573.97;;;13.30;33.84
50394;BME280;36308;46.312;25.288;2023-05-12T06:39:25;96579.94;;;13.38;33.64
50394;BME280;36308;46.312;25.288;2023-05-12T06:41:51;96582.16;;;13.46;33.44
50394;BME280;36308;46.312;25.288;2023-05-12T06:44:16;96579.50;;;13.51;34.04
50394;BME280;36308;46.312;25.288;2023-05-12T06:46:42;96580.59;;;13.60;33.43
50394;BME280;36308;46.312;25.288;2023-05-12T06:49:07;96586.00;;;13.65;33.33
50394;BME280;36308;46.312;25.288;2023-05-12T06:51:33;96589.31;;;13.72;32.88
50394;BME280;36308;46.312;25.288;2023-05-12T06:54:00;96596.34;;;13.79;33.05
50394;BME280;36308;46.312;25.288;2023-05-12T06:56:26;96598.50;;;13.82;33.29
50394;BME280;36308;46.312;25.288;2023-05-12T06:58:54;96587.75;;;13.87;33.11
50394;BME280;36308;46.312;25.288;2023-05-12T07:01:26;96590.44;;;13.92;32.75
50394;BME280;36308;46.312;25.288;2023-05-12T07:03:51;96591.53;;;13.96;33.14
50394;BME280;36308;46.312;25.288;2023-05-12T07:06:17;96593.44;;;14.01;32.47
50394;BME280;36308;46.312;25.288;2023-05-12T07:08:42;96585.88;;;14.03;31.87
50394;BME280;36308;46.312;25.288;2023-05-12T07:11:08;96596.19;;;14.06;32.06
50394;BME280;36308;46.312;25.288;2023-05-12T07:13:34;96602.13;;;14.08;31.99
50394;BME280;36308;46.312;25.288;2023-05-12T07:15:59;96595.63;;;14.09;31.99
50394;BME280;36308;46.312;25.288;2023-05-12T07:18:25;96598.88;;;14.11;31.85
50394;BME280;36308;46.312;25.288;2023-05-12T07:20:50;96608.38;;;14.13;32.30
50394;BME280;36308;46.312;25.288;2023-05-12T07:23:16;96601.63;;;14.16;32.13
50394;BME280;36308;46.312;25.288;2023-05-12T07:25:41;96600.81;;;14.21;32.25
50394;BME280;36308;46.312;25.288;2023-05-12T07:28:07;96606.75;;;14.23;32.55
50394;BME280;36308;46.312;25.288;2023-05-12T07:30:32;96600.28;;;14.24;32.64
50394;BME280;36308;46.312;25.288;2023-05-12T07:32:58;96610.03;;;14.30;32.86
50394;BME280;36308;46.312;25.288;2023-05-12T07:35:25;96613.84;;;14.34;32.72
50394;BME280;36308;46.312;25.288;2023-05-12T07:37:51;96614.94;;;14.38;31.94
50394;BME280;36308;46.312;25.288;2023-05-12T07:40:17;96621.94;;;14.39;32.11
50394;BME280;36308;46.312;25.288;2023-05-12T07:42:43;96624.66;;;14.44;31.82
50394;BME280;36308;46.312;25.288;2023-05-12T07:45:08;96618.19;;;14.40;31.21
50394;BME280;36308;46.312;25.288;2023-05-12T07:47:34;96621.69;;;14.46;31.32
50394;BME280;36308;46.312;25.288;2023-05-12T07:49:59;96620.34;;;14.48;31.38
50394;BME280;36308;46.312;25.288;2023-05-12T07:52:25;96613.59;;;14.51;31.17
50394;BME280;36308;46.312;25.288;2023-05-12T07:54:50;96625.50;;;14.55;30.70
50394;BME280;36308;46.312;25.288;2023-05-12T07:57:16;96623.88;;;14.54;31.09
50394;BME280;36308;46.312;25.288;2023-05-12T07:59:42;96624.19;;;14.58;30.14
50394;BME280;36308;46.312;25.288;2023-05-12T08:02:08;96624.47;;;14.61;30.62
50394;BME280;36308;46.312;25.288;2023-05-12T08:04:34;96618.50;;;14.64;29.84
50394;BME280;36308;46.312;25.288;2023-05-12T08:06:59;96612.00;;;14.60;30.39
50394;BME280;36308;46.312;25.288;2023-05-12T08:09:25;96614.72;;;14.60;30.50
50394;BME280;36308;46.312;25.288;2023-05-12T08:11:50;96613.34;;;14.58;30.47
50394;BME280;36308;46.312;25.288;2023-05-12T08:14:16;96625.28;;;14.62;30.85
50394;BME280;36308;46.312;25.288;2023-05-12T08:16:41;96611.72;;;14.67;30.41
50394;BME280;36308;46.312;25.288;2023-05-12T08:19:11;96627.44;;;14.70;30.59
50394;BME280;36308;46.312;25.288;2023-05-12T08:21:36;96627.44;;;14.75;30.60
50394;BME280;36308;46.312;25.288;2023-05-12T08:24:02;96620.97;;;14.76;30.44
50394;BME280;36308;46.312;25.288;2023-05-12T08:26:27;96617.69;;;14.79;30.78
50394;BME280;36308;46.312;25.288;2023-05-12T08:28:53;96623.66;;;14.81;30.61
50394;BME280;36308;46.312;25.288;2023-05-12T08:31:18;96614.47;;;14.82;30.50
50394;BME280;36308;46.312;25.288;2023-05-12T08:33:45;96613.91;;;14.85;30.88
50394;BME280;36308;46.312;25.288;2023-05-12T08:36:10;96616.63;;;14.85;31.18
50394;BME280;36308;46.312;25.288;2023-05-12T08:38:36;96619.88;;;14.92;30.97
50394;BME280;36308;46.312;25.288;2023-05-12T08:41:33;96618.53;;;14.95;31.08
50394;BME280;36308;46.312;25.288;2023-05-12T08:44:01;96609.56;;;15.00;31.08
50394;BME280;36308;46.312;25.288;2023-05-12T08:46:29;96614.47;;;15.03;30.88
50394;BME280;36308;46.312;25.288;2023-05-12T08:48:58;96615.53;;;15.02;30.76
50394;BME280;36308;46.312;25.288;2023-05-12T08:51:27;96619.88;;;15.03;31.26
50394;BME280;36308;46.312;25.288;2023-05-12T08:53:54;96617.16;;;15.08;31.12
50394;BME280;36308;46.312;25.288;2023-05-12T08:56:21;96609.56;;;15.10;30.96
50394;BME280;36308;46.312;25.288;2023-05-12T08:58:46;96616.06;;;15.14;30.78
50394;BME280;36308;46.312;25.288;2023-05-12T09:01:13;96613.34;;;15.14;31.16
50394;BME280;36308;46.312;25.288;2023-05-12T09:03:38;96626.34;;;15.22;31.31
50394;BME280;36308;46.312;25.288;2023-05-12T09:06:05;96620.94;;;15.27;31.08
50394;BME280;36308;46.312;25.288;2023-05-12T09:08:31;96621.47;;;15.29;31.01
50394;BME280;36308;46.312;25.288;2023-05-12T09:10:58;96620.94;;;15.32;31.02
50394;BME280;36308;46.312;25.288;2023-05-12T09:16:23;96619.28;;;15.36;30.90
50394;BME280;36308;46.312;25.288;2023-05-12T09:18:54;96613.88;;;15.36;30.95
50394;BME280;36308;46.312;25.288;2023-05-12T09:21:21;96619.28;;;15.36;31.16
50394;BME280;36308;46.312;25.288;2023-05-12T09:23:53;96611.69;;;15.39;31.39
50394;BME280;36308;46.312;25.288;2023-05-12T09:26:20;96614.94;;;15.35;31.00
50394;BME280;36308;46.312;25.288;2023-05-12T09:28:47;96621.44;;;15.40;31.24
50394;BME280;36308;46.312;25.288;2023-05-12T09:31:17;96615.47;;;15.38;30.75
50394;BME280;36308;46.312;25.288;2023-05-12T09:33:44;96608.44;;;15.36;30.71
50394;BME280;36308;46.312;25.288;2023-05-12T09:36:15;96617.13;;;15.33;30.65
50394;BME280;36308;46.312;25.288;2023-05-12T09:38:41;96609.00;;;15.33;30.91
50394;BME280;36308;46.312;25.288;2023-05-12T09:41:06;96607.13;;;15.34;31.33
50394;BME280;36308;46.312;25.288;2023-05-12T09:43:32;96607.91;;;15.34;31.61
50394;BME280;36308;46.312;25.288;2023-05-12T09:46:03;96620.66;;;15.34;31.33
50394;BME280;36308;46.312;25.288;2023-05-12T09:48:29;96611.16;;;15.31;31.35
50394;BME280;36308;46.312;25.288;2023-05-12T09:50:55;96606.84;;;15.30;31.63
50394;BME280;36308;46.312;25.288;2023-05-12T09:53:21;96611.44;;;15.30;31.67
50394;BME280;36308;46.312;25.288;2023-05-12T09:55:47;96606.28;;;15.33;31.61
50394;BME280;36308;46.312;25.288;2023-05-12T09:58:17;96604.66;;;15.38;31.93
50394;BME280;36308;46.312;25.288;2023-05-12T10:00:44;96618.72;;;15.40;31.77
50394;BME280;36308;46.312;25.288;2023-05-12T10:03:14;96612.22;;;15.35;31.84
50394;BME280;36308;46.312;25.288;2023-05-12T10:05:49;96611.16;;;15.36;32.38
50394;BME280;36308;46.312;25.288;2023-05-12T10:08:20;96619.28;;;15.36;31.89
50394;BME280;36308;46.312;25.288;2023-05-12T10:10:50;96614.97;;;15.30;31.96
50394;BME280;36308;46.312;25.288;2023-05-12T10:13:16;96611.72;;;15.28;31.85
50394;BME280;36308;46.312;25.288;2023-05-12T10:15:43;96611.44;;;15.25;31.87
50394;BME280;36308;46.312;25.288;2023-05-12T10:18:11;96617.69;;;15.25;32.41
50394;BME280;36308;46.312;25.288;2023-05-12T10:20:37;96609.84;;;15.24;32.05
50394;BME280;36308;46.312;25.288;2023-05-12T10:23:04;96610.38;;;15.21;31.84
50394;BME280;36308;46.312;25.288;2023-05-12T10:25:31;96614.97;;;15.20;31.65
50394;BME280;36308;46.312;25.288;2023-05-12T10:28:00;96610.94;;;15.18;31.64
50394;BME280;36308;46.312;25.288;2023-05-12T10:30:25;96615.53;;;15.17;32.21
50394;BME280;36308;46.312;25.288;2023-05-12T10:32:51;96607.41;;;15.17;32.37
50394;BME280;36308;46.312;25.288;2023-05-12T10:35:17;96613.91;;;15.16;32.16
50394;BME280;36308;46.312;25.288;2023-05-12T10:37:45;96619.88;;;15.13;32.35
50394;BME280;36308;46.312;25.288;2023-05-12T10:40:10;96613.91;;;15.11;31.94
50394;BME280;36308;46.312;25.288;2023-05-12T10:42:49;96612.84;;;15.07;32.28
50394;BME280;36308;46.312;25.288;2023-05-12T10:45:18;96620.41;;;15.05;31.66
50394;BME280;36308;46.312;25.288;2023-05-12T10:47:45;96623.13;;;15.00;31.67
50394;BME280;36308;46.312;25.288;2023-05-12T10:50:11;96620.41;;;15.00;32.14
50394;BME280;36308;46.312;25.288;2023-05-12T10:52:52;96635.59;;;15.01;32.30
50394;BME280;36308;46.312;25.288;2023-05-12T10:55:29;96635.03;;;14.99;32.10
50394;BME280;36308;46.312;25.288;2023-05-12T10:58:03;96633.97;;;14.94;32.31
50394;BME280;36308;46.312;25.288;2023-05-12T11:00:29;96629.63;;;14.93;32.36
50394;BME280;36308;46.312;25.288;2023-05-12T11:02:54;96631.25;;;14.89;32.31
50394;BME280;36308;46.312;25.288;2023-05-12T11:05:32;96638.81;;;14.87;32.89
50394;BME280;36308;46.312;25.288;2023-05-12T11:07:59;96642.63;;;14.86;32.79
50394;BME280;36308;46.312;25.288;2023-05-12T11:10:27;96643.16;;;14.83;33.03
50394;BME280;36308;46.312;25.288;2023-05-12T11:12:53;96650.47;;;14.78;33.08
50394;BME280;36308;46.312;25.288;2023-05-12T11:15:19;96654.50;;;14.75;33.32
50394;BME280;36308;46.312;25.288;2023-05-12T11:17:45;96658.56;;;14.72;33.65
50394;BME280;36308;46.312;25.288;2023-05-12T11:20:24;96674.53;;;14.69;33.57
50394;BME280;36308;46.312;25.288;2023-05-12T11:22:50;96663.44;;;14.65;34.06
50394;BME280;36308;46.312;25.288;2023-05-12T11:25:16;96657.72;;;14.57;34.25
50394;BME280;36308;46.312;25.288;2023-05-12T11:27:46;96668.81;;;14.55;34.88
50394;BME280;36308;46.312;25.288;2023-05-12T11:30:13;96675.00;;;14.50;34.80
50394;BME280;36308;46.312;25.288;2023-05-12T11:32:39;96669.03;;;14.48;34.98
50394;BME280;36308;46.312;25.288;2023-05-12T11:35:11;96676.59;;;14.46;35.07
50394;BME280;36308;46.312;25.288;2023-05-12T11:37:39;96669.56;;;14.45;35.43
50394;BME280;36308;46.312;25.288;2023-05-12T11:40:18;96678.25;;;14.47;35.90
50394;BME280;36308;46.312;25.288;2023-05-12T11:42:44;96678.25;;;14.47;36.25
50394;BME280;36308;46.312;25.288;2023-05-12T11:45:23;96683.09;;;14.45;36.70
50394;BME280;36308;46.312;25.288;2023-05-12T11:47:49;96677.16;;;14.43;37.46
50394;BME280;36308;46.312;25.288;2023-05-12T11:50:22;96672.28;;;14.40;37.72
50394;BME280;36308;46.312;25.288;2023-05-12T11:52:48;96674.44;;;14.38;38.07
50394;BME280;36308;46.312;25.288;2023-05-12T11:55:19;96677.91;;;14.33;38.22
50394;BME280;36308;46.312;25.288;2023-05-12T11:57:57;96691.19;;;14.35;38.16
50394;BME280;36308;46.312;25.288;2023-05-12T12:00:28;96688.47;;;14.35;38.51
50394;BME280;36308;46.312;25.288;2023-05-12T12:03:05;96687.94;;;14.33;38.87
50394;BME280;36308;46.312;25.288;2023-05-12T12:05:31;96685.50;;;14.31;38.90
50394;BME280;36308;46.312;25.288;2023-05-12T12:08:13;96688.47;;;14.30;39.00
50394;BME280;36308;46.312;25.288;2023-05-12T12:10:43;96693.06;;;14.29;38.86
50394;BME280;36308;46.312;25.288;2023-05-12T12:13:09;96689.53;;;14.29;38.87
50394;BME280;36308;46.312;25.288;2023-05-12T12:15:34;96687.38;;;14.26;39.01
50394;BME280;36308;46.312;25.288;2023-05-12T12:18:00;96689.00;;;14.22;39.31
50394;BME280;36308;46.312;25.288;2023-05-12T12:20:25;96689.25;;;14.20;39.40
50394;BME280;36308;46.312;25.288;2023-05-12T12:22:52;96688.94;;;14.17;39.71
50394;BME280;36308;46.312;25.288;2023-05-12T12:25:19;96699.25;;;14.20;40.17
50394;BME280;36308;46.312;25.288;2023-05-12T12:27:45;96707.38;;;14.20;40.58
50394;BME280;36308;46.312;25.288;2023-05-12T12:30:11;96697.06;;;14.17;40.90
50394;BME280;36308;46.312;25.288;2023-05-12T12:32:37;96701.94;;;14.14;40.82
50394;BME280;36308;46.312;25.288;2023-05-12T12:35:03;96695.41;;;14.10;41.01
50394;BME280;36308;46.312;25.288;2023-05-12T12:37:31;96688.41;;;14.09;41.51
50394;BME280;36308;46.312;25.288;2023-05-12T12:39:57;96695.13;;;14.07;41.50
50394;BME280;36308;46.312;25.288;2023-05-12T12:42:23;96692.69;;;14.05;41.25
50394;BME280;36308;46.312;25.288;2023-05-12T12:44:48;96693.22;;;14.02;40.80
50394;BME280;36308;46.312;25.288;2023-05-12T12:47:16;96683.44;;;13.96;40.80
50394;BME280;36308;46.312;25.288;2023-05-12T12:49:41;96685.59;;;13.94;40.47
50394;BME280;36308;46.312;25.288;2023-05-12T12:52:07;96677.47;;;13.89;40.64
50394;BME280;36308;46.312;25.288;2023-05-12T12:54:33;96676.94;;;13.87;40.82
50394;BME280;36308;46.312;25.288;2023-05-12T12:56:59;96669.88;;;13.86;41.12